Time;durP1;ratioP1;P1;durP2;ratioP2;P2;SDS_P1;SDS_P2;PMS_P1;PMS_P2;Temp;Humidity;BMP_temperature;BMP_pressure;BME280_temperature;BME280_humidity;BME280_pressure;Samples;Min_cycle;Max_cycle;Signal;HPM_P1;HPM_P2
2022/10/26 04:01:59;;;;;;;7.70;5.05;;;;;;;11.44;86.41;101068.94;5589140;31;85613;-55
2022/10/26 04:05:03;;;;;;;8.15;4.97;;;;;;;11.44;86.41;101068.94;5603882;31;33085;-55
2022/10/26 04:08:05;;;;;;;10.57;4.90;;;;;;;11.04;87.03;101070.53;5603505;31;34093;-56
2022/10/26 04:11:07;;;;;;;8.80;4.70;;;;;;;10.90;87.20;101082.84;5595414;31;33596;-55
2022/10/26 04:14:09;;;;;;;8.27;4.60;;;;;;;11.03;85.94;101081.53;5589176;31;33577;-55
2022/10/26 04:17:11;;;;;;;8.10;5.20;;;;;;;11.01;86.18;101081.78;5603789;31;33456;-55
2022/10/26 04:20:14;;;;;;;8.27;5.05;;;;;;;10.98;86.89;101081.53;5601238;31;33636;-56
2022/10/26 04:23:18;;;;;;;8.00;5.00;;;;;;;10.97;86.39;101082.59;5583812;31;33516;-56
2022/10/26 04:26:20;;;;;;;8.70;4.85;;;;;;;10.95;86.85;101082.03;5602692;31;33529;-56
2022/10/26 04:29:22;;;;;;;7.07;4.70;;;;;;;10.97;86.08;101085.28;5587522;31;33517;-55
2022/10/26 04:32:25;;;;;;;10.73;5.53;;;;;;;10.94;86.01;101086.59;5567443;32;33566;-56
2022/10/26 04:35:28;;;;;;;9.82;5.85;;;;;;;10.92;86.16;101074.53;5564265;32;33610;-56
2022/10/26 04:38:30;;;;;;;7.75;5.65;;;;;;;11.02;85.46;101071.84;5564210;32;34362;-56
2022/10/26 04:41:32;;;;;;;8.77;6.62;;;;;;;10.97;85.20;101085.28;5568586;32;33764;-57
2022/10/26 04:44:34;;;;;;;9.55;6.45;;;;;;;10.85;86.18;101079.34;5570728;32;33689;-56
2022/10/26 04:47:37;;;;;;;12.65;6.15;;;;;;;10.85;85.52;101076.66;5563816;32;33686;-56
2022/10/26 04:50:40;;;;;;;10.38;6.97;;;;;;;10.78;86.58;101079.59;5561338;32;33419;-56
2022/10/26 04:53:43;;;;;;;9.90;7.25;;;;;;;10.87;85.61;101074.53;5563695;32;33729;-56
2022/10/26 04:56:45;;;;;;;9.60;6.95;;;;;;;10.96;84.95;101067.56;5564175;32;34287;-55
2022/10/26 04:59:52;;;;;;;11.40;7.70;;;;;;;10.84;85.27;101072.38;5578240;31;34268;-56
2022/10/26 05:03:01;;;;;;;12.25;7.55;;;;;;;10.84;85.90;101070.50;5563160;32;34246;-56
2022/10/26 05:06:04;;;;;;;16.73;7.12;;;;;;;10.77;85.85;101076.09;5562780;32;33667;-56
2022/10/26 05:09:06;;;;;;;11.48;7.68;;;;;;;10.79;86.08;101073.16;5565755;32;33675;-56
2022/10/26 05:12:08;;;;;;;11.18;7.22;;;;;;;10.68;86.33;101074.19;5552456;32;34252;-56
2022/10/26 05:15:13;;;;;;;12.95;7.97;;;;;;;10.72;86.11;101080.66;5553399;32;33750;-56
2022/10/26 05:18:15;;;;;;;11.95;7.28;;;;;;;10.71;86.31;101084.41;5559072;32;33667;-56
2022/10/26 05:21:20;;;;;;;13.75;8.20;;;;;;;10.84;85.81;101091.16;5550519;32;33711;-56
2022/10/26 05:24:22;;;;;;;12.52;8.68;;;;;;;10.88;85.07;101090.34;5548561;32;33755;-56
2022/10/26 05:27:24;;;;;;;11.52;7.95;;;;;;;10.84;85.32;101088.47;5552734;32;33416;-56
2022/10/26 05:30:28;;;;;;;14.38;8.45;;;;;;;10.68;86.17;101103.69;5552701;32;34451;-56
2022/10/26 05:33:30;;;;;;;13.45;8.52;;;;;;;10.77;86.21;101102.13;5563437;32;33265;-56
2022/10/26 05:36:32;;;;;;;20.70;8.52;;;;;;;10.82;85.99;101104.81;5564948;32;34269;-55
2022/10/26 05:39:34;;;;;;;13.18;8.52;;;;;;;10.94;85.26;101105.38;5559301;32;34457;-56
2022/10/26 05:42:36;;;;;;;15.35;8.75;;;;;;;10.83;85.72;101103.75;5565590;32;34469;-56
2022/10/26 05:45:38;;;;;;;17.17;10.00;;;;;;;10.84;85.90;101112.59;5556284;32;34342;-57
2022/10/26 05:48:41;;;;;;;18.23;11.60;;;;;;;10.86;86.38;101110.44;5550059;32;33620;-55
2022/10/26 05:51:43;;;;;;;26.73;11.52;;;;;;;10.91;87.11;101123.88;5566048;32;33453;-56
2022/10/26 05:54:45;;;;;;;18.15;11.23;;;;;;;10.92;86.98;101120.12;5552811;32;34075;-56
2022/10/26 05:57:48;;;;;;;22.15;12.27;;;;;;;11.01;86.92;101121.22;5558063;32;33736;-56
2022/10/26 06:01:06;;;;;;;21.85;12.30;;;;;;;11.03;87.50;101116.41;5559425;32;34335;-53
2022/10/26 06:04:24;;;;;;;30.17;12.82;;;;;;;11.01;87.62;101121.22;5561832;32;34387;-53
2022/10/26 06:07:26;;;;;;;23.02;13.77;;;;;;;11.05;88.62;101116.94;5551962;32;34321;-53
2022/10/26 06:10:29;;;;;;;28.50;14.00;;;;;;;11.05;88.75;101123.09;5567634;32;34450;-53
2022/10/26 06:13:31;;;;;;;20.83;13.52;;;;;;;11.11;89.23;101123.94;5561645;32;33656;-53
2022/10/26 06:16:52;;;;;;;25.35;12.27;;;;;;;11.13;88.74;101131.75;5550220;32;33600;-54
2022/10/26 06:20:07;;;;;;;21.95;13.62;;;;;;;11.23;88.92;101139.81;5555818;32;34269;-54
2022/10/26 06:23:28;;;;;;;20.77;14.05;;;;;;;11.21;89.49;101144.63;5547203;32;33828;-53
2022/10/26 06:26:55;;;;;;;22.92;14.05;;;;;;;11.26;89.70;101140.09;5554613;32;33338;-54
2022/10/26 06:30:06;;;;;;;19.50;14.48;;;;;;;11.36;89.62;101144.66;5555194;32;33730;-53
2022/10/26 06:33:11;;;;;;;21.20;13.60;;;;;;;11.28;90.53;101147.84;5556677;32;33558;-55
2022/10/26 06:36:32;;;;;;;23.45;14.63;;;;;;;11.37;90.34;101134.72;5548435;32;34353;-54
2022/10/26 06:39:41;;;;;;;22.67;14.45;;;;;;;11.50;89.90;101137.69;5559721;32;33807;-54
2022/10/26 06:42:43;;;;;;;23.83;14.95;;;;;;;11.51;89.74;101143.84;5564210;32;33909;-55
2022/10/26 06:45:50;;;;;;;18.45;14.95;;;;;;;11.61;89.56;101146.53;5559329;32;33885;-54
2022/10/26 06:49:05;;;;;;;21.80;17.02;;;;;;;11.78;89.03;101148.97;5550380;32;33586;-54
2022/10/26 06:52:17;;;;;;;31.73;17.73;;;;;;;11.95;87.52;101152.22;5549784;32;34274;-54
2022/10/26 06:55:21;;;;;;;24.87;17.08;;;;;;;12.12;86.46;101157.31;5563254;32;33665;-54
2022/10/26 06:58:27;;;;;;;24.45;15.93;;;;;;;12.10;86.06;101162.13;5545752;32;33744;-54
2022/10/26 07:01:30;;;;;;;936.92;86.40;;;;;;;12.20;85.05;101162.13;5551911;32;33637;-55
2022/10/26 07:04:32;;;;;;;27.48;15.65;;;;;;;12.21;85.44;101163.72;5567824;32;34224;-54
2022/10/26 07:07:39;;;;;;;29.02;17.00;;;;;;;12.23;85.04;101164.28;5560578;32;34429;-54
2022/10/26 07:10:42;;;;;;;;;;;;;;;12.27;84.31;101163.72;5556988;32;34339;-54
2022/10/26 07:13:44;;;;;;;29.80;20.50;;;;;;;12.23;84.47;101161.59;5562748;32;34228;-54
2022/10/26 07:16:46;;;;;;;34.83;20.42;;;;;;;12.20;84.49;101166.69;5558387;32;33741;-54
2022/10/26 07:19:49;;;;;;;24.98;19.55;;;;;;;12.17;84.27;101167.25;5551325;32;33667;-54
2022/10/26 07:22:55;;;;;;;30.33;20.02;;;;;;;12.14;84.77;101171.25;5549533;32;33686;-54
2022/10/26 07:25:59;;;;;;;31.33;17.08;;;;;;;12.17;84.81;101178.00;5549711;32;33678;-55
2022/10/26 07:29:01;;;;;;;28.02;16.90;;;;;;;12.22;84.96;101175.31;5534663;32;33174;-54
2022/10/26 07:32:03;;;;;;;25.62;15.95;;;;;;;12.20;85.12;101180.94;5549531;32;34326;-54
2022/10/26 07:35:06;;;;;;;28.30;15.60;;;;;;;12.12;86.45;101183.34;5548635;32;33694;-54
2022/10/26 07:38:11;;;;;;;28.40;17.20;;;;;;;12.03;86.71;101190.38;5551273;32;33709;-55
2022/10/26 07:41:13;;;;;;;18.27;12.85;;;;;;;12.03;87.64;101188.50;5549270;32;34217;-54
2022/10/26 07:44:15;;;;;;;20.10;13.62;;;;;;;12.18;86.91;101188.47;5556917;32;34308;-54
2022/10/26 07:47:29;;;;;;;17.67;13.27;;;;;;;12.30;86.11;101188.19;5549154;32;33591;-54
2022/10/26 07:50:31;;;;;;;19.25;13.68;;;;;;;12.11;86.92;101185.25;5549887;32;33629;-55
2022/10/26 07:53:33;;;;;;;23.85;14.95;;;;;;;12.17;87.25;101175.31;5558416;32;33875;-54
2022/10/26 07:56:36;;;;;;;19.23;14.18;;;;;;;12.11;88.21;101182.56;5547976;32;34454;-54
2022/10/26 07:59:38;;;;;;;19.65;14.15;;;;;;;12.27;87.56;101177.16;5546311;32;34012;-55
2022/10/26 08:02:40;;;;;;;19.95;15.15;;;;;;;12.14;88.09;101179.34;5550107;32;34421;-54
2022/10/26 08:05:50;;;;;;;23.35;16.05;;;;;;;12.22;87.13;101176.09;5563437;32;33652;-54
2022/10/26 08:08:52;;;;;;;23.40;16.55;;;;;;;12.21;87.12;101179.06;5547885;32;33608;-54
2022/10/26 08:11:54;;;;;;;21.42;16.20;;;;;;;12.39;86.49;101178.50;5554093;32;34319;-54
2022/10/26 08:14:56;;;;;;;25.48;16.92;;;;;;;12.29;87.61;101175.81;5546311;32;33577;-55
2022/10/26 08:17:59;;;;;;;24.65;18.60;;;;;;;12.21;88.70;101174.47;5558174;32;33585;-54
2022/10/26 08:21:05;;;;;;;23.62;18.10;;;;;;;12.34;88.70;101175.81;5563502;32;33591;-55
2022/10/26 08:24:13;;;;;;;23.80;17.73;;;;;;;12.33;88.47;101178.78;5554456;32;34460;-55
2022/10/26 08:27:15;;;;;;;24.05;18.25;;;;;;;12.27;89.75;101182.53;5547876;32;33059;-56
2022/10/26 08:30:17;;;;;;;25.92;18.30;;;;;;;12.38;89.71;101186.81;5565458;32;33511;-54
2022/10/26 08:33:20;;;;;;;23.02;17.87;;;;;;;12.51;89.02;101180.88;5556183;32;33603;-54
2022/10/26 08:36:25;;;;;;;24.87;17.40;;;;;;;12.58;89.02;101181.41;5566030;32;33837;-54
2022/10/26 08:39:29;;;;;;;24.27;17.95;;;;;;;12.75;87.50;101180.25;5550016;32;33645;-54
2022/10/26 08:42:35;;;;;;;25.62;18.58;;;;;;;12.77;88.38;101178.09;5551516;32;33642;-54
2022/10/26 08:45:41;;;;;;;24.98;17.60;;;;;;;12.80;89.17;101181.03;5564138;32;34297;-54
2022/10/26 08:48:53;;;;;;;22.13;16.08;;;;;;;12.96;87.71;101179.09;5556756;32;34036;-54
2022/10/26 08:52:00;;;;;;;20.60;15.48;;;;;;;12.99;88.37;101189.31;5556655;32;34214;-55
2022/10/26 08:55:07;;;;;;;23.27;15.82;;;;;;;13.04;88.14;101186.59;5546256;32;33284;-54
2022/10/26 08:58:15;;;;;;;23.08;13.85;;;;;;;13.24;86.24;101187.56;5544388;32;34384;-54
2022/10/26 09:01:17;;;;;;;18.75;14.23;;;;;;;13.28;86.41;101199.44;5557889;32;33610;-55
2022/10/26 09:04:26;;;;;;;15.75;12.63;;;;;;;13.35;85.95;101198.03;5547820;32;33610;-55
2022/10/26 09:07:55;;;;;;;14.00;11.90;;;;;;;13.47;85.75;101203.06;5549832;32;34415;-55
2022/10/26 09:11:27;;;;;;;14.25;11.85;;;;;;;13.52;84.79;101199.56;5547594;32;34370;-54
2022/10/26 09:15:07;;;;;;;16.90;12.15;;;;;;;13.51;86.54;101198.75;5550128;32;33606;-54
2022/10/26 09:18:47;;;;;;;17.73;11.05;;;;;;;13.54;87.31;101197.38;5544621;32;34220;-54
2022/10/26 09:22:17;;;;;;;18.83;11.68;;;;;;;13.76;86.35;101200.44;5546585;32;33783;-54
2022/10/26 09:25:23;;;;;;;19.08;12.85;;;;;;;13.89;85.68;101201.69;5549961;32;33671;-54
2022/10/26 09:28:30;;;;;;;16.45;10.98;;;;;;;13.92;85.18;101211.12;5546728;32;33581;-54
2022/10/26 09:31:45;;;;;;;13.85;10.63;;;;;;;13.94;86.58;101208.94;5547702;32;33825;-55
2022/10/26 09:34:51;;;;;;;17.48;13.15;;;;;;;14.04;86.83;101215.06;5547003;32;33304;-54
2022/10/26 09:38:04;;;;;;;17.45;11.20;;;;;;;14.03;87.45;101221.53;5569406;32;33777;-54
2022/10/26 09:41:07;;;;;;;16.33;10.77;;;;;;;14.07;87.29;101222.59;5561077;32;33534;-55
2022/10/26 09:44:24;;;;;;;14.32;9.77;;;;;;;14.23;87.57;101212.44;5553060;32;33722;-54
2022/10/26 09:47:51;;;;;;;14.13;10.30;;;;;;;14.28;88.31;101222.41;5551008;32;33177;-54
2022/10/26 09:50:55;;;;;;;14.00;10.25;;;;;;;14.25;89.00;101217.56;5549948;32;33690;-54
2022/10/26 09:54:13;;;;;;;15.45;10.75;;;;;;;14.38;87.88;101219.59;5547690;32;33704;-55
2022/10/26 09:57:18;;;;;;;10.75;9.18;;;;;;;14.37;88.20;101218.00;5550263;32;34514;-54
2022/10/26 10:00:24;;;;;;;15.05;10.52;;;;;;;14.49;88.53;101213.00;5551196;32;33637;-55
2022/10/26 10:03:29;;;;;;;11.20;8.35;;;;;;;14.39;89.92;101223.91;5567843;32;33196;-54
2022/10/26 10:06:31;;;;;;;15.70;10.60;;;;;;;14.43;91.25;101224.94;5547683;32;34365;-55
2022/10/26 10:09:34;;;;;;;15.57;10.90;;;;;;;14.48;91.06;101218.69;5562780;32;33990;-54
2022/10/26 10:12:36;;;;;;;14.48;10.25;;;;;;;14.64;89.56;101220.19;5569504;32;33654;-55
2022/10/26 10:15:38;;;;;;;19.33;11.63;;;;;;;14.66;89.39;101226.06;5558063;32;33644;-54
2022/10/26 10:18:41;;;;;;;17.83;11.07;;;;;;;14.65;89.99;101221.78;5547973;32;33597;-54
2022/10/26 10:21:47;;;;;;;16.27;10.60;;;;;;;14.65;90.34;101224.47;5557739;32;33736;-54
2022/10/26 10:24:58;;;;;;;13.32;11.05;;;;;;;14.71;90.28;101227.94;5567837;32;33792;-54
2022/10/26 10:28:02;;;;;;;14.05;11.30;;;;;;;14.73;90.25;101233.81;5565484;31;34476;-55
2022/10/26 10:31:27;;;;;;;17.35;11.73;;;;;;;14.62;91.43;101229.63;5550509;32;34326;-55
2022/10/26 10:34:30;;;;;;;16.98;11.35;;;;;;;14.71;90.46;101223.34;5568475;32;34135;-56
2022/10/26 10:37:43;;;;;;;16.23;12.70;;;;;;;14.76;89.77;101228.66;5548831;32;33753;-55
2022/10/26 10:40:51;;;;;;;16.05;13.07;;;;;;;14.79;89.58;101214.59;5546047;32;34362;-54
2022/10/26 10:44:01;;;;;;;19.70;14.70;;;;;;;14.80;89.61;101220.78;5550180;32;33909;-55
2022/10/26 10:47:06;;;;;;;24.12;14.87;;;;;;;14.89;89.32;101223.66;5564530;32;33717;-55
2022/10/26 10:50:19;;;;;;;19.40;14.32;;;;;;;14.77;89.91;101216.78;5548334;32;33620;-55
2022/10/26 10:53:42;;;;;;;22.75;15.32;;;;;;;14.62;91.90;101216.94;5556745;32;33723;-54
2022/10/26 10:56:50;;;;;;;23.98;15.43;;;;;;;14.54;92.64;101210.28;5548944;32;33642;-54
2022/10/26 11:00:03;;;;;;;21.70;14.73;;;;;;;14.70;91.43;101210.94;5551250;32;33632;-54
2022/10/26 11:03:31;;;;;;;18.95;14.90;;;;;;;14.84;90.97;101213.75;5552748;32;33649;-54
2022/10/26 11:06:37;;;;;;;20.08;15.73;;;;;;;14.95;90.69;101201.72;5558437;32;33755;-54
2022/10/26 11:09:42;;;;;;;21.42;14.60;;;;;;;14.85;90.99;101207.25;5546245;32;33599;-54
2022/10/26 11:12:58;;;;;;;22.85;15.50;;;;;;;14.89;91.33;101205.56;5547431;32;33576;-54
2022/10/26 11:16:04;;;;;;;27.17;15.90;;;;;;;14.88;91.99;101211.28;5548834;32;34367;-54
2022/10/26 11:19:18;;;;;;;23.20;16.15;;;;;;;14.89;92.38;101207.47;5551721;32;34410;-54
2022/10/26 11:22:26;;;;;;;22.73;16.65;;;;;;;15.00;91.74;101201.66;5553542;32;33789;-54
2022/10/26 11:25:35;;;;;;;23.65;15.50;;;;;;;15.09;91.43;101201.81;5552951;32;33647;-55
2022/10/26 11:29:00;;;;;;;24.35;16.60;;;;;;;15.28;90.16;101204.53;5547275;32;33763;-54
2022/10/26 11:32:22;;;;;;;23.58;17.40;;;;;;;15.24;90.89;101190.00;5541036;32;33313;-56
2022/10/26 11:35:34;;;;;;;24.83;17.55;;;;;;;15.36;90.24;101200.34;5550425;32;33736;-54
2022/10/26 11:38:57;;;;;;;24.63;17.77;;;;;;;15.37;90.19;101191.97;5564663;32;34011;-54
2022/10/26 11:42:17;;;;;;;27.23;19.10;;;;;;;15.44;89.78;101186.22;5555056;32;35042;-54
2022/10/26 11:45:38;;;;;;;26.45;20.10;;;;;;;15.38;90.30;101188.19;5548896;32;33368;-55
2022/10/26 11:49:03;;;;;;;28.38;20.95;;;;;;;15.38;90.54;101185.47;5561850;32;33744;-54
2022/10/26 11:52:16;;;;;;;32.70;20.70;;;;;;;15.30;91.32;101182.63;5564567;32;33784;-54
2022/10/26 11:55:21;;;;;;;31.35;21.25;;;;;;;15.39;90.60;101184.38;5554345;32;34414;-54
2022/10/26 11:58:26;;;;;;;30.60;21.62;;;;;;;15.44;90.17;101176.19;5553193;32;33693;-54
2022/10/26 12:01:30;;;;;;;37.40;23.73;;;;;;;15.52;89.90;101178.22;5546798;32;33232;-54
2022/10/26 12:04:36;;;;;;;35.60;22.85;;;;;;;15.49;90.54;101175.31;5548429;32;33739;-54
2022/10/26 12:07:39;;;;;;;36.65;23.15;;;;;;;15.42;91.35;101172.19;5528588;32;33959;-54
2022/10/26 12:10:49;;;;;;;36.42;23.55;;;;;;;15.47;90.87;101172.13;5553299;32;33758;-55
2022/10/26 12:14:06;;;;;;;33.33;23.90;;;;;;;15.43;92.48;101176.47;5543896;32;34415;-56
2022/10/26 12:17:29;;;;;;;35.20;23.98;;;;;;;15.50;92.33;101172.31;5543560;32;33653;-55
2022/10/26 12:21:03;;;;;;;30.85;22.62;;;;;;;15.63;92.34;101169.97;5544732;32;34498;-54
2022/10/26 12:24:26;;;;;;;30.48;22.67;;;;;;;15.93;89.88;101171.41;5525217;32;34336;-54
2022/10/26 12:27:42;;;;;;;31.00;23.40;;;;;;;16.04;89.16;101166.63;5544729;32;33332;-55
2022/10/26 12:30:45;;;;;;;30.70;22.13;;;;;;;15.93;89.95;101171.41;5536698;32;34390;-55
2022/10/26 12:33:50;;;;;;;36.58;24.75;;;;;;;15.95;90.34;101167.28;5555580;32;33744;-55
2022/10/26 12:36:55;;;;;;;32.25;22.98;;;;;;;16.01;90.22;101169.91;5553195;32;34435;-55
2022/10/26 12:40:31;;;;;;;36.50;23.12;;;;;;;16.06;89.99;101159.81;5554084;32;34341;-55
2022/10/26 12:43:36;;;;;;;34.65;23.00;;;;;;;16.08;90.23;101170.31;5558281;32;33657;-55
2022/10/26 12:46:40;;;;;;;35.92;23.25;;;;;;;16.14;89.90;101159.13;5550440;32;34383;-54
2022/10/26 12:50:04;;;;;;;29.83;23.33;;;;;;;16.20;89.66;101157.12;5555238;32;34454;-55
2022/10/26 12:53:16;;;;;;;30.23;22.10;;;;;;;16.20;89.86;101162.53;5549677;32;34487;-55
2022/10/26 12:56:35;;;;;;;35.17;24.48;;;;;;;16.20;90.14;101155.22;5549621;32;34339;-54
2022/10/26 12:59:59;;;;;;;32.00;24.40;;;;;;;16.25;90.17;101150.81;5546903;32;33626;-55
2022/10/26 13:03:09;;;;;;;34.50;23.80;;;;;;;16.30;89.80;101146.13;5548798;32;33250;-54
2022/10/26 13:06:37;;;;;;;30.23;21.20;;;;;;;16.37;89.28;101151.94;5550006;32;34364;-54
2022/10/26 13:09:44;;;;;;;35.72;20.98;;;;;;;16.48;88.69;101152.53;5550686;32;34405;-55
2022/10/26 13:12:48;;;;;;;30.80;20.95;;;;;;;16.54;87.94;101147.81;5550631;32;33437;-55
2022/10/26 13:15:54;;;;;;;30.12;20.52;;;;;;;16.56;87.42;101151.03;5550792;32;34406;-55
2022/10/26 13:18:58;;;;;;;31.17;23.33;;;;;;;16.60;86.49;101149.34;5550552;32;34380;-55
2022/10/26 13:22:00;;;;;;;31.73;24.08;;;;;;;16.60;86.40;101146.63;5550965;32;34359;-55
2022/10/26 13:25:05;;;;;;;82.32;73.65;;;;;;;16.54;87.36;101151.31;5550834;32;34553;-55
2022/10/26 13:28:36;;;;;;;31.83;23.10;;;;;;;16.53;87.43;101155.16;5550647;32;33605;-55
2022/10/26 13:31:40;;;;;;;31.37;22.10;;;;;;;16.63;87.08;101159.56;5545268;32;33860;-55
2022/10/26 13:34:43;;;;;;;34.90;21.87;;;;;;;16.56;88.10;101156.47;5550493;32;34397;-55
2022/10/26 13:37:47;;;;;;;32.45;21.10;;;;;;;16.57;87.86;101158.84;5550441;32;34019;-55
2022/10/26 13:41:04;;;;;;;33.87;22.23;;;;;;;16.62;87.20;101164.19;5550368;32;34568;-55
2022/10/26 13:44:15;;;;;;;33.72;22.00;;;;;;;16.63;86.70;101157.66;5550421;32;34479;-55
2022/10/26 13:47:28;;;;;;;29.05;20.73;;;;;;;16.54;87.43;101155.94;5549938;32;34404;-55
2022/10/26 13:50:54;;;;;;;30.40;20.80;;;;;;;16.55;88.48;101157.53;5550572;32;34388;-55
2022/10/26 13:54:14;;;;;;;29.75;21.60;;;;;;;16.51;89.18;101161.97;5550262;32;33817;-56
2022/10/26 13:57:36;;;;;;;30.48;20.62;;;;;;;16.44;89.74;101156.94;5550337;32;33848;-55
2022/10/26 14:00:39;;;;;;;35.53;21.75;;;;;;;16.44;90.32;101167.78;5549744;32;33846;-55
2022/10/26 14:03:42;;;;;;;36.88;22.75;;;;;;;16.45;90.40;101164.75;5550314;32;33489;-55
2022/10/26 14:06:50;;;;;;;32.28;22.27;;;;;;;16.45;90.67;101162.03;5563826;32;35324;-55
2022/10/26 14:09:55;;;;;;;32.13;22.45;;;;;;;16.44;91.01;101167.78;5562360;32;33895;-55
2022/10/26 14:12:59;;;;;;;47.75;23.00;;;;;;;16.41;91.70;101163.75;5569194;32;33635;-55
2022/10/26 14:16:07;;;;;;;34.55;21.83;;;;;;;16.41;91.87;101163.75;5569781;32;33671;-55
2022/10/26 14:19:18;;;;;;;32.63;21.48;;;;;;;16.43;92.19;101166.97;5565846;32;33907;-55
2022/10/26 14:22:26;;;;;;;32.85;22.83;;;;;;;16.42;92.35;101173.50;5564186;32;33908;-55
2022/10/26 14:25:30;;;;;;;35.15;24.23;;;;;;;16.42;92.19;101165.37;5569818;32;33636;-55
2022/10/26 14:28:49;;;;;;;40.67;25.62;;;;;;;16.43;92.56;101166.19;5569409;31;33813;-54
2022/10/26 14:31:53;;;;;;;35.25;24.10;;;;;;;16.41;93.67;101171.88;5569565;32;33697;-55
2022/10/26 14:34:56;;;;;;;34.33;24.27;;;;;;;16.39;93.36;101173.25;5569523;32;33719;-55
2022/10/26 14:38:14;;;;;;;31.33;22.23;;;;;;;16.38;92.42;101168.97;5569613;32;34228;-55
2022/10/26 14:41:17;;;;;;;28.42;19.55;;;;;;;16.38;91.97;101161.66;5569347;32;34228;-55
2022/10/26 14:44:22;;;;;;;34.50;18.85;;;;;;;16.39;91.06;101157.03;5568319;32;33692;-55
2022/10/26 14:47:30;;;;;;;33.08;17.95;;;;;;;16.43;91.48;101158.84;5569634;32;34343;-54
2022/10/26 14:50:35;;;;;;;28.08;17.58;;;;;;;16.41;91.36;101168.38;5569684;32;33726;-55
2022/10/26 14:53:40;;;;;;;26.42;17.60;;;;;;;16.42;91.27;101161.84;5569041;32;33801;-55
2022/10/26 14:56:43;;;;;;;24.17;16.70;;;;;;;16.41;91.47;101165.66;5569345;32;34341;-55
2022/10/26 14:59:59;;;;;;;26.33;16.77;;;;;;;16.43;91.75;101171.59;5569283;32;34329;-55
2022/10/26 15:03:01;;;;;;;27.30;17.60;;;;;;;16.43;92.00;101164.25;5568416;32;33682;-55
2022/10/26 15:06:29;;;;;;;26.45;16.83;;;;;;;16.40;92.57;101172.97;5569447;32;33732;-55
2022/10/26 15:09:41;;;;;;;26.48;17.08;;;;;;;16.43;92.60;101172.37;5569468;32;33668;-55
2022/10/26 15:12:44;;;;;;;26.75;18.17;;;;;;;16.43;93.26;101171.59;5569508;32;34370;-54
2022/10/26 15:15:47;;;;;;;26.02;17.80;;;;;;;16.38;92.48;101177.88;5569684;32;34485;-55
2022/10/26 15:19:08;;;;;;;30.50;19.15;;;;;;;16.35;92.91;101174.97;5564530;32;33446;-55
2022/10/26 15:22:21;;;;;;;24.25;16.77;;;;;;;16.28;93.49;101180.78;5549813;32;34321;-55
2022/10/26 15:25:27;;;;;;;23.80;17.87;;;;;;;16.27;93.39;101187.28;5549507;32;33585;-54
2022/10/26 15:28:30;;;;;;;26.87;17.27;;;;;;;16.30;93.43;101185.91;5549389;32;33708;-56
2022/10/26 15:31:33;;;;;;;22.40;14.43;;;;;;;16.28;94.17;101183.47;5549794;32;33708;-56
2022/10/26 15:34:35;;;;;;;24.30;15.48;;;;;;;16.35;94.90;101186.59;5549607;32;34331;-56
2022/10/26 15:37:37;;;;;;;26.10;15.82;;;;;;;16.36;93.92;101188.22;5549676;32;33638;-56
2022/10/26 15:40:43;;;;;;;25.33;16.50;;;;;;;16.36;93.56;101188.22;5549641;32;34322;-56
2022/10/26 15:43:47;;;;;;;24.00;16.70;;;;;;;16.39;93.53;101192.22;5549662;32;34465;-56
